sensor_id;sensor_type;location;lat;lon;timestamp;P1;durP1;ratioP1;P2;durP2;ratioP2
81336;SDS011;70799;48.000;10.584;2023-07-02T00:01:02;3.55;;;1.90;;
81336;SDS011;70799;48.000;10.584;2023-07-02T00:03:37;3.42;;;1.88;;
81336;SDS011;70799;48.000;10.584;2023-07-02T00:06:11;3.90;;;1.90;;
81336;SDS011;70799;48.000;10.584;2023-07-02T00:08:44;5.15;;;2.47;;
81336;SDS011;70799;48.000;10.584;2023-07-02T00:11:17;3.45;;;1.98;;
81336;SDS011;70799;48.000;10.584;2023-07-02T00:13:50;3.08;;;1.80;;
81336;SDS011;70799;48.000;10.584;2023-07-02T00:16:23;3.83;;;2.05;;
81336;SDS011;70799;48.000;10.584;2023-07-02T00:18:57;2.88;;;1.80;;
81336;SDS011;70799;48.000;10.584;2023-07-02T00:21:33;3.08;;;1.90;;
81336;SDS011;70799;48.000;10.584;2023-07-02T00:26:42;3.35;;;1.90;;
81336;SDS011;70799;48.000;10.584;2023-07-02T00:29:17;3.40;;;2.00;;
81336;SDS011;70799;48.000;10.584;2023-07-02T00:31:50;4.75;;;2.70;;
81336;SDS011;70799;48.000;10.584;2023-07-02T00:34:24;3.90;;;2.50;;
81336;SDS011;70799;48.000;10.584;2023-07-02T00:36:57;4.10;;;2.70;;
81336;SDS011;70799;48.000;10.584;2023-07-02T00:39:31;3.45;;;2.17;;
81336;SDS011;70799;48.000;10.584;2023-07-02T00:42:06;4.32;;;2.50;;
81336;SDS011;70799;48.000;10.584;2023-07-02T00:44:42;4.50;;;2.38;;
81336;SDS011;70799;48.000;10.584;2023-07-02T00:47:16;3.47;;;1.85;;
81336;SDS011;70799;48.000;10.584;2023-07-02T00:49:49;4.43;;;2.47;;
81336;SDS011;70799;48.000;10.584;2023-07-02T00:52:23;4.07;;;2.20;;
81336;SDS011;70799;48.000;10.584;2023-07-02T00:54:57;3.90;;;2.00;;
81336;SDS011;70799;48.000;10.584;2023-07-02T00:57:31;3.53;;;2.20;;
81336;SDS011;70799;48.000;10.584;2023-07-02T01:00:04;3.75;;;2.40;;
81336;SDS011;70799;48.000;10.584;2023-07-02T01:02:39;4.43;;;2.42;;
81336;SDS011;70799;48.000;10.584;2023-07-02T01:05:16;3.95;;;2.10;;
81336;SDS011;70799;48.000;10.584;2023-07-02T01:07:53;3.47;;;2.15;;
81336;SDS011;70799;48.000;10.584;2023-07-02T01:10:26;3.00;;;1.90;;
81336;SDS011;70799;48.000;10.584;2023-07-02T01:13:00;3.35;;;2.22;;
81336;SDS011;70799;48.000;10.584;2023-07-02T01:15:42;4.28;;;2.35;;
81336;SDS011;70799;48.000;10.584;2023-07-02T01:18:16;2.95;;;2.00;;
81336;SDS011;70799;48.000;10.584;2023-07-02T01:20:50;3.20;;;2.10;;
81336;SDS011;70799;48.000;10.584;2023-07-02T01:23:25;4.80;;;2.60;;
81336;SDS011;70799;48.000;10.584;2023-07-02T01:25:58;4.43;;;2.25;;
81336;SDS011;70799;48.000;10.584;2023-07-02T01:28:36;3.05;;;1.85;;
81336;SDS011;70799;48.000;10.584;2023-07-02T01:31:09;3.28;;;2.05;;
81336;SDS011;70799;48.000;10.584;2023-07-02T01:33:42;3.72;;;2.10;;
81336;SDS011;70799;48.000;10.584;2023-07-02T01:36:15;3.88;;;2.47;;
81336;SDS011;70799;48.000;10.584;2023-07-02T01:38:48;3.75;;;2.40;;
81336;SDS011;70799;48.000;10.584;2023-07-02T01:41:22;3.95;;;2.20;;
81336;SDS011;70799;48.000;10.584;2023-07-02T01:43:55;3.70;;;2.35;;
81336;SDS011;70799;48.000;10.584;2023-07-02T01:46:28;4.00;;;2.70;;
81336;SDS011;70799;48.000;10.584;2023-07-02T01:49:01;4.00;;;2.30;;
81336;SDS011;70799;48.000;10.584;2023-07-02T01:51:34;3.20;;;2.20;;
81336;SDS011;70799;48.000;10.584;2023-07-02T01:54:09;4.43;;;2.63;;
81336;SDS011;70799;48.000;10.584;2023-07-02T01:56:43;5.00;;;2.50;;
81336;SDS011;70799;48.000;10.584;2023-07-02T01:59:16;3.67;;;2.05;;
81336;SDS011;70799;48.000;10.584;2023-07-02T02:01:49;3.78;;;2.17;;
81336;SDS011;70799;48.000;10.584;2023-07-02T02:04:22;4.22;;;2.55;;
81336;SDS011;70799;48.000;10.584;2023-07-02T02:06:57;5.18;;;2.53;;
81336;SDS011;70799;48.000;10.584;2023-07-02T02:09:51;4.32;;;2.30;;
81336;SDS011;70799;48.000;10.584;2023-07-02T02:12:58;3.10;;;1.90;;
81336;SDS011;70799;48.000;10.584;2023-07-02T02:15:53;4.00;;;1.98;;
81336;SDS011;70799;48.000;10.584;2023-07-02T02:18:54;3.45;;;1.83;;
81336;SDS011;70799;48.000;10.584;2023-07-02T02:21:45;6.22;;;2.33;;
81336;SDS011;70799;48.000;10.584;2023-07-02T02:24:41;3.97;;;2.25;;
81336;SDS011;70799;48.000;10.584;2023-07-02T02:27:40;5.38;;;2.08;;
81336;SDS011;70799;48.000;10.584;2023-07-02T02:30:26;3.90;;;2.00;;
81336;SDS011;70799;48.000;10.584;2023-07-02T02:32:59;4.05;;;2.38;;
81336;SDS011;70799;48.000;10.584;2023-07-02T02:35:35;3.80;;;2.20;;
81336;SDS011;70799;48.000;10.584;2023-07-02T02:38:08;5.60;;;2.33;;
81336;SDS011;70799;48.000;10.584;2023-07-02T02:40:42;4.65;;;2.47;;
81336;SDS011;70799;48.000;10.584;2023-07-02T02:43:20;3.63;;;2.15;;
81336;SDS011;70799;48.000;10.584;2023-07-02T02:45:55;3.88;;;2.03;;
81336;SDS011;70799;48.000;10.584;2023-07-02T02:48:28;4.43;;;2.88;;
81336;SDS011;70799;48.000;10.584;2023-07-02T02:51:01;4.10;;;2.45;;
81336;SDS011;70799;48.000;10.584;2023-07-02T02:53:36;4.10;;;2.58;;
81336;SDS011;70799;48.000;10.584;2023-07-02T02:56:09;4.53;;;2.78;;
81336;SDS011;70799;48.000;10.584;2023-07-02T02:58:43;4.07;;;2.38;;
81336;SDS011;70799;48.000;10.584;2023-07-02T03:01:16;4.05;;;2.53;;
81336;SDS011;70799;48.000;10.584;2023-07-02T03:03:49;4.10;;;2.10;;
81336;SDS011;70799;48.000;10.584;2023-07-02T03:06:24;4.07;;;2.45;;
81336;SDS011;70799;48.000;10.584;2023-07-02T03:08:57;4.43;;;2.67;;
81336;SDS011;70799;48.000;10.584;2023-07-02T03:11:31;5.65;;;2.53;;
81336;SDS011;70799;48.000;10.584;2023-07-02T03:14:04;5.93;;;2.65;;
81336;SDS011;70799;48.000;10.584;2023-07-02T03:16:38;5.55;;;2.92;;
81336;SDS011;70799;48.000;10.584;2023-07-02T03:19:11;4.20;;;2.35;;
81336;SDS011;70799;48.000;10.584;2023-07-02T03:21:46;5.20;;;2.80;;
81336;SDS011;70799;48.000;10.584;2023-07-02T03:24:19;5.80;;;3.05;;
81336;SDS011;70799;48.000;10.584;2023-07-02T03:26:53;4.40;;;2.58;;
81336;SDS011;70799;48.000;10.584;2023-07-02T03:29:26;4.97;;;2.60;;
81336;SDS011;70799;48.000;10.584;2023-07-02T03:31:59;5.18;;;2.72;;
81336;SDS011;70799;48.000;10.584;2023-07-02T03:34:33;5.07;;;2.47;;
81336;SDS011;70799;48.000;10.584;2023-07-02T03:37:07;5.07;;;2.42;;
81336;SDS011;70799;48.000;10.584;2023-07-02T03:39:40;3.97;;;2.20;;
81336;SDS011;70799;48.000;10.584;2023-07-02T03:42:13;5.53;;;2.08;;
81336;SDS011;70799;48.000;10.584;2023-07-02T03:44:46;4.03;;;2.10;;
81336;SDS011;70799;48.000;10.584;2023-07-02T03:47:19;4.00;;;2.20;;
81336;SDS011;70799;48.000;10.584;2023-07-02T03:49:52;6.00;;;2.13;;
81336;SDS011;70799;48.000;10.584;2023-07-02T03:52:26;4.65;;;1.98;;
81336;SDS011;70799;48.000;10.584;2023-07-02T03:54:59;4.55;;;2.05;;
81336;SDS011;70799;48.000;10.584;2023-07-02T03:57:33;5.90;;;2.20;;
81336;SDS011;70799;48.000;10.584;2023-07-02T04:00:06;4.53;;;2.00;;
81336;SDS011;70799;48.000;10.584;2023-07-02T04:02:45;5.60;;;2.65;;
81336;SDS011;70799;48.000;10.584;2023-07-02T04:05:19;4.88;;;2.00;;
81336;SDS011;70799;48.000;10.584;2023-07-02T04:07:52;4.78;;;2.13;;
81336;SDS011;70799;48.000;10.584;2023-07-02T04:10:27;4.30;;;2.17;;
81336;SDS011;70799;48.000;10.584;2023-07-02T04:13:02;6.15;;;2.22;;
81336;SDS011;70799;48.000;10.584;2023-07-02T04:15:35;4.88;;;2.20;;
81336;SDS011;70799;48.000;10.584;2023-07-02T04:18:08;4.03;;;2.20;;
81336;SDS011;70799;48.000;10.584;2023-07-02T04:20:41;4.75;;;2.15;;
81336;SDS011;70799;48.000;10.584;2023-07-02T04:23:15;5.53;;;2.30;;
81336;SDS011;70799;48.000;10.584;2023-07-02T04:25:48;6.82;;;2.55;;
81336;SDS011;70799;48.000;10.584;2023-07-02T04:28:41;5.88;;;2.53;;
81336;SDS011;70799;48.000;10.584;2023-07-02T04:31:15;4.25;;;2.20;;
81336;SDS011;70799;48.000;10.584;2023-07-02T04:33:48;5.07;;;2.65;;
81336;SDS011;70799;48.000;10.584;2023-07-02T04:36:21;4.35;;;2.28;;
81336;SDS011;70799;48.000;10.584;2023-07-02T04:38:55;4.53;;;2.47;;
81336;SDS011;70799;48.000;10.584;2023-07-02T04:41:32;4.80;;;2.30;;
81336;SDS011;70799;48.000;10.584;2023-07-02T04:44:05;4.35;;;2.40;;
81336;SDS011;70799;48.000;10.584;2023-07-02T04:46:38;4.63;;;2.55;;
81336;SDS011;70799;48.000;10.584;2023-07-02T04:49:13;3.78;;;2.50;;
81336;SDS011;70799;48.000;10.584;2023-07-02T04:51:47;6.88;;;2.78;;
81336;SDS011;70799;48.000;10.584;2023-07-02T04:54:20;4.47;;;2.53;;
81336;SDS011;70799;48.000;10.584;2023-07-02T04:56:55;4.55;;;2.70;;
81336;SDS011;70799;48.000;10.584;2023-07-02T04:59:32;4.47;;;2.50;;
81336;SDS011;70799;48.000;10.584;2023-07-02T05:02:04;4.35;;;2.53;;
81336;SDS011;70799;48.000;10.584;2023-07-02T05:04:38;3.95;;;2.30;;
81336;SDS011;70799;48.000;10.584;2023-07-02T05:07:11;5.43;;;2.30;;
81336;SDS011;70799;48.000;10.584;2023-07-02T05:09:46;5.55;;;2.67;;
81336;SDS011;70799;48.000;10.584;2023-07-02T05:12:21;4.57;;;2.33;;
81336;SDS011;70799;48.000;10.584;2023-07-02T05:14:55;4.70;;;2.35;;
81336;SDS011;70799;48.000;10.584;2023-07-02T05:17:29;5.72;;;2.70;;
81336;SDS011;70799;48.000;10.584;2023-07-02T05:20:06;5.07;;;2.63;;
81336;SDS011;70799;48.000;10.584;2023-07-02T05:22:40;4.68;;;2.40;;
81336;SDS011;70799;48.000;10.584;2023-07-02T05:25:13;5.00;;;2.33;;
81336;SDS011;70799;48.000;10.584;2023-07-02T05:27:47;4.63;;;2.58;;
81336;SDS011;70799;48.000;10.584;2023-07-02T05:30:20;4.50;;;2.58;;
81336;SDS011;70799;48.000;10.584;2023-07-02T05:32:54;4.57;;;2.80;;
81336;SDS011;70799;48.000;10.584;2023-07-02T05:35:27;4.82;;;2.67;;
81336;SDS011;70799;48.000;10.584;2023-07-02T05:38:00;5.53;;;2.90;;
81336;SDS011;70799;48.000;10.584;2023-07-02T05:40:34;5.63;;;2.40;;
81336;SDS011;70799;48.000;10.584;2023-07-02T05:43:07;4.07;;;2.65;;
81336;SDS011;70799;48.000;10.584;2023-07-02T05:45:40;5.28;;;2.25;;
81336;SDS011;70799;48.000;10.584;2023-07-02T05:48:13;5.63;;;2.70;;
81336;SDS011;70799;48.000;10.584;2023-07-02T05:50:47;4.55;;;2.72;;
81336;SDS011;70799;48.000;10.584;2023-07-02T05:53:21;4.65;;;2.53;;
81336;SDS011;70799;48.000;10.584;2023-07-02T05:55:54;4.25;;;2.63;;
81336;SDS011;70799;48.000;10.584;2023-07-02T05:58:27;4.13;;;2.33;;
81336;SDS011;70799;48.000;10.584;2023-07-02T06:01:17;3.95;;;2.25;;
81336;SDS011;70799;48.000;10.584;2023-07-02T06:03:50;4.32;;;2.72;;
81336;SDS011;70799;48.000;10.584;2023-07-02T06:06:24;5.55;;;2.83;;
81336;SDS011;70799;48.000;10.584;2023-07-02T06:08:57;4.53;;;2.95;;
81336;SDS011;70799;48.000;10.584;2023-07-02T06:11:33;4.50;;;2.90;;
81336;SDS011;70799;48.000;10.584;2023-07-02T06:14:06;5.63;;;3.03;;
81336;SDS011;70799;48.000;10.584;2023-07-02T06:16:41;6.70;;;3.60;;
81336;SDS011;70799;48.000;10.584;2023-07-02T06:19:15;6.40;;;3.88;;
81336;SDS011;70799;48.000;10.584;2023-07-02T06:21:49;7.43;;;4.22;;
81336;SDS011;70799;48.000;10.584;2023-07-02T06:24:22;8.35;;;4.32;;
81336;SDS011;70799;48.000;10.584;2023-07-02T06:26:55;8.50;;;4.75;;
81336;SDS011;70799;48.000;10.584;2023-07-02T06:29:29;8.32;;;4.88;;
81336;SDS011;70799;48.000;10.584;2023-07-02T06:32:02;14.55;;;5.13;;
81336;SDS011;70799;48.000;10.584;2023-07-02T06:34:39;9.85;;;4.53;;
81336;SDS011;70799;48.000;10.584;2023-07-02T06:37:12;10.73;;;4.47;;
81336;SDS011;70799;48.000;10.584;2023-07-02T06:39:45;8.65;;;4.75;;
81336;SDS011;70799;48.000;10.584;2023-07-02T06:42:18;9.27;;;4.72;;
81336;SDS011;70799;48.000;10.584;2023-07-02T06:44:51;8.93;;;4.55;;
81336;SDS011;70799;48.000;10.584;2023-07-02T06:47:25;8.50;;;3.95;;
81336;SDS011;70799;48.000;10.584;2023-07-02T06:49:58;8.95;;;4.90;;
81336;SDS011;70799;48.000;10.584;2023-07-02T06:52:33;9.52;;;4.68;;
81336;SDS011;70799;48.000;10.584;2023-07-02T06:55:07;10.27;;;4.97;;
81336;SDS011;70799;48.000;10.584;2023-07-02T06:57:44;8.82;;;4.88;;
81336;SDS011;70799;48.000;10.584;2023-07-02T07:00:17;11.02;;;4.85;;
81336;SDS011;70799;48.000;10.584;2023-07-02T07:02:51;13.07;;;5.60;;
81336;SDS011;70799;48.000;10.584;2023-07-02T07:05:24;11.40;;;5.85;;
81336;SDS011;70799;48.000;10.584;2023-07-02T07:07:57;12.48;;;5.47;;
81336;SDS011;70799;48.000;10.584;2023-07-02T07:10:33;10.85;;;5.45;;
81336;SDS011;70799;48.000;10.584;2023-07-02T07:13:07;9.40;;;5.47;;
81336;SDS011;70799;48.000;10.584;2023-07-02T07:15:42;12.15;;;5.63;;
81336;SDS011;70799;48.000;10.584;2023-07-02T07:18:16;10.48;;;4.88;;
81336;SDS011;70799;48.000;10.584;2023-07-02T07:20:50;13.07;;;6.03;;
81336;SDS011;70799;48.000;10.584;2023-07-02T07:23:24;13.30;;;5.70;;
81336;SDS011;70799;48.000;10.584;2023-07-02T07:25:57;13.05;;;5.80;;
81336;SDS011;70799;48.000;10.584;2023-07-02T07:28:31;11.73;;;5.78;;
81336;SDS011;70799;48.000;10.584;2023-07-02T07:31:04;16.90;;;6.55;;
81336;SDS011;70799;48.000;10.584;2023-07-02T07:33:39;11.70;;;5.88;;
81336;SDS011;70799;48.000;10.584;2023-07-02T07:36:12;15.05;;;7.32;;
81336;SDS011;70799;48.000;10.584;2023-07-02T07:38:46;13.77;;;7.35;;
81336;SDS011;70799;48.000;10.584;2023-07-02T07:41:20;15.27;;;7.85;;
81336;SDS011;70799;48.000;10.584;2023-07-02T07:43:53;15.02;;;7.75;;
81336;SDS011;70799;48.000;10.584;2023-07-02T07:46:26;17.30;;;7.68;;
81336;SDS011;70799;48.000;10.584;2023-07-02T07:49:02;19.20;;;8.70;;
81336;SDS011;70799;48.000;10.584;2023-07-02T07:51:35;15.52;;;7.80;;
81336;SDS011;70799;48.000;10.584;2023-07-02T07:54:08;14.05;;;7.57;;
81336;SDS011;70799;48.000;10.584;2023-07-02T07:56:42;15.63;;;8.43;;
81336;SDS011;70799;48.000;10.584;2023-07-02T07:59:16;16.08;;;7.80;;
81336;SDS011;70799;48.000;10.584;2023-07-02T08:01:49;13.88;;;7.32;;
81336;SDS011;70799;48.000;10.584;2023-07-02T08:04:22;14.40;;;7.97;;
81336;SDS011;70799;48.000;10.584;2023-07-02T08:06:56;17.88;;;8.88;;
81336;SDS011;70799;48.000;10.584;2023-07-02T08:09:29;15.20;;;8.90;;
81336;SDS011;70799;48.000;10.584;2023-07-02T08:12:06;20.98;;;9.73;;
81336;SDS011;70799;48.000;10.584;2023-07-02T08:14:45;16.13;;;8.50;;
81336;SDS011;70799;48.000;10.584;2023-07-02T08:17:19;18.73;;;9.43;;
81336;SDS011;70799;48.000;10.584;2023-07-02T08:20:03;16.13;;;9.02;;
81336;SDS011;70799;48.000;10.584;2023-07-02T08:22:41;19.73;;;9.70;;
81336;SDS011;70799;48.000;10.584;2023-07-02T08:25:15;18.45;;;9.27;;
81336;SDS011;70799;48.000;10.584;2023-07-02T08:27:50;14.40;;;8.63;;
81336;SDS011;70799;48.000;10.584;2023-07-02T08:30:35;16.65;;;8.60;;
81336;SDS011;70799;48.000;10.584;2023-07-02T08:33:08;18.38;;;9.05;;
81336;SDS011;70799;48.000;10.584;2023-07-02T08:35:44;17.10;;;8.32;;
81336;SDS011;70799;48.000;10.584;2023-07-02T08:38:19;16.13;;;8.65;;
81336;SDS011;70799;48.000;10.584;2023-07-02T08:41:01;16.77;;;9.57;;
81336;SDS011;70799;48.000;10.584;2023-07-02T08:43:36;14.65;;;9.38;;
81336;SDS011;70799;48.000;10.584;2023-07-02T08:48:43;20.98;;;9.18;;
81336;SDS011;70799;48.000;10.584;2023-07-02T08:51:18;18.08;;;10.00;;
81336;SDS011;70799;48.000;10.584;2023-07-02T08:53:52;17.60;;;10.52;;
81336;SDS011;70799;48.000;10.584;2023-07-02T08:56:27;20.10;;;9.77;;
81336;SDS011;70799;48.000;10.584;2023-07-02T08:59:01;17.10;;;10.82;;
81336;SDS011;70799;48.000;10.584;2023-07-02T09:01:51;18.80;;;10.50;;
81336;SDS011;70799;48.000;10.584;2023-07-02T09:04:25;18.25;;;10.73;;
81336;SDS011;70799;48.000;10.584;2023-07-02T09:07:06;18.27;;;10.52;;
81336;SDS011;70799;48.000;10.584;2023-07-02T09:09:45;16.92;;;10.18;;
81336;SDS011;70799;48.000;10.584;2023-07-02T09:12:21;17.92;;;10.50;;
81336;SDS011;70799;48.000;10.584;2023-07-02T09:15:06;17.85;;;10.73;;
81336;SDS011;70799;48.000;10.584;2023-07-02T09:17:40;16.63;;;10.38;;
81336;SDS011;70799;48.000;10.584;2023-07-02T09:20:15;19.95;;;10.77;;
81336;SDS011;70799;48.000;10.584;2023-07-02T09:22:53;20.60;;;10.63;;
81336;SDS011;70799;48.000;10.584;2023-07-02T09:25:39;18.38;;;10.52;;
81336;SDS011;70799;48.000;10.584;2023-07-02T09:28:13;18.45;;;10.85;;
81336;SDS011;70799;48.000;10.584;2023-07-02T09:30:55;19.90;;;11.35;;
81336;SDS011;70799;48.000;10.584;2023-07-02T09:33:32;19.15;;;11.57;;
81336;SDS011;70799;48.000;10.584;2023-07-02T09:36:07;21.23;;;10.80;;
81336;SDS011;70799;48.000;10.584;2023-07-02T09:38:43;17.92;;;10.65;;
81336;SDS011;70799;48.000;10.584;2023-07-02T09:41:16;17.65;;;10.60;;
81336;SDS011;70799;48.000;10.584;2023-07-02T09:43:50;21.17;;;10.85;;
81336;SDS011;70799;48.000;10.584;2023-07-02T09:46:23;15.88;;;9.60;;
81336;SDS011;70799;48.000;10.584;2023-07-02T09:48:57;21.30;;;10.80;;
81336;SDS011;70799;48.000;10.584;2023-07-02T09:51:34;19.30;;;11.23;;
81336;SDS011;70799;48.000;10.584;2023-07-02T09:54:08;17.27;;;10.00;;
81336;SDS011;70799;48.000;10.584;2023-07-02T09:56:43;17.35;;;10.02;;
81336;SDS011;70799;48.000;10.584;2023-07-02T09:59:18;22.17;;;10.40;;
81336;SDS011;70799;48.000;10.584;2023-07-02T10:01:51;17.92;;;10.02;;
81336;SDS011;70799;48.000;10.584;2023-07-02T10:04:25;18.88;;;10.73;;
81336;SDS011;70799;48.000;10.584;2023-07-02T10:07:01;18.40;;;9.90;;
81336;SDS011;70799;48.000;10.584;2023-07-02T10:09:38;17.25;;;10.32;;
81336;SDS011;70799;48.000;10.584;2023-07-02T10:12:21;19.00;;;10.80;;
81336;SDS011;70799;48.000;10.584;2023-07-02T10:15:05;18.10;;;10.88;;
81336;SDS011;70799;48.000;10.584;2023-07-02T10:17:38;17.52;;;10.80;;
81336;SDS011;70799;48.000;10.584;2023-07-02T10:20:11;16.25;;;9.82;;
81336;SDS011;70799;48.000;10.584;2023-07-02T10:22:45;19.25;;;10.40;;
81336;SDS011;70799;48.000;10.584;2023-07-02T10:25:25;17.00;;;10.23;;
81336;SDS011;70799;48.000;10.584;2023-07-02T10:27:59;17.10;;;10.93;;
81336;SDS011;70799;48.000;10.584;2023-07-02T10:30:34;16.02;;;10.23;;
81336;SDS011;70799;48.000;10.584;2023-07-02T10:33:13;16.75;;;11.02;;
81336;SDS011;70799;48.000;10.584;2023-07-02T10:35:49;15.93;;;10.48;;
81336;SDS011;70799;48.000;10.584;2023-07-02T10:38:24;18.27;;;11.10;;
81336;SDS011;70799;48.000;10.584;2023-07-02T10:40:58;17.48;;;11.02;;
81336;SDS011;70799;48.000;10.584;2023-07-02T10:43:33;17.45;;;11.15;;
81336;SDS011;70799;48.000;10.584;2023-07-02T10:46:06;18.48;;;10.57;;
81336;SDS011;70799;48.000;10.584;2023-07-02T10:48:40;18.73;;;10.85;;
81336;SDS011;70799;48.000;10.584;2023-07-02T10:51:24;18.92;;;10.63;;
81336;SDS011;70799;48.000;10.584;2023-07-02T10:54:00;17.50;;;10.80;;
81336;SDS011;70799;48.000;10.584;2023-07-02T10:56:36;19.55;;;10.82;;
81336;SDS011;70799;48.000;10.584;2023-07-02T10:59:09;19.42;;;11.20;;
81336;SDS011;70799;48.000;10.584;2023-07-02T11:01:43;18.45;;;11.40;;
81336;SDS011;70799;48.000;10.584;2023-07-02T11:04:16;18.50;;;10.25;;
81336;SDS011;70799;48.000;10.584;2023-07-02T11:06:52;17.38;;;10.93;;
81336;SDS011;70799;48.000;10.584;2023-07-02T11:09:25;17.38;;;10.02;;
81336;SDS011;70799;48.000;10.584;2023-07-02T11:12:00;16.67;;;10.50;;
81336;SDS011;70799;48.000;10.584;2023-07-02T11:14:35;18.67;;;11.63;;
81336;SDS011;70799;48.000;10.584;2023-07-02T11:17:11;17.15;;;10.25;;
81336;SDS011;70799;48.000;10.584;2023-07-02T11:19:49;18.42;;;10.90;;
81336;SDS011;70799;48.000;10.584;2023-07-02T11:22:32;17.70;;;10.65;;
81336;SDS011;70799;48.000;10.584;2023-07-02T11:25:12;17.92;;;11.15;;
81336;SDS011;70799;48.000;10.584;2023-07-02T11:28:01;16.98;;;10.75;;
81336;SDS011;70799;48.000;10.584;2023-07-02T11:30:45;18.45;;;10.65;;
81336;SDS011;70799;48.000;10.584;2023-07-02T11:33:20;17.30;;;10.70;;
81336;SDS011;70799;48.000;10.584;2023-07-02T11:36:19;18.98;;;11.00;;
81336;SDS011;70799;48.000;10.584;2023-07-02T11:38:54;19.52;;;11.35;;
81336;SDS011;70799;48.000;10.584;2023-07-02T11:41:36;18.70;;;10.77;;
81336;SDS011;70799;48.000;10.584;2023-07-02T11:44:13;18.42;;;10.52;;
81336;SDS011;70799;48.000;10.584;2023-07-02T11:46:48;19.60;;;11.32;;
81336;SDS011;70799;48.000;10.584;2023-07-02T11:49:21;17.92;;;10.85;;
81336;SDS011;70799;48.000;10.584;2023-07-02T11:51:55;17.52;;;10.63;;
81336;SDS011;70799;48.000;10.584;2023-07-02T11:54:29;18.55;;;11.00;;
81336;SDS011;70799;48.000;10.584;2023-07-02T11:57:02;17.42;;;9.70;;
81336;SDS011;70799;48.000;10.584;2023-07-02T11:59:37;18.42;;;10.50;;
81336;SDS011;70799;48.000;10.584;2023-07-02T12:02:11;18.10;;;11.45;;
81336;SDS011;70799;48.000;10.584;2023-07-02T12:04:45;18.25;;;11.43;;
81336;SDS011;70799;48.000;10.584;2023-07-02T12:07:20;17.67;;;11.05;;
81336;SDS011;70799;48.000;10.584;2023-07-02T12:09:53;19.63;;;11.68;;
81336;SDS011;70799;48.000;10.584;2023-07-02T12:12:27;18.33;;;11.00;;
81336;SDS011;70799;48.000;10.584;2023-07-02T12:15:01;18.92;;;11.23;;
81336;SDS011;70799;48.000;10.584;2023-07-02T12:17:35;20.77;;;12.63;;
81336;SDS011;70799;48.000;10.584;2023-07-02T12:20:09;17.08;;;11.02;;
81336;SDS011;70799;48.000;10.584;2023-07-02T12:22:43;16.42;;;10.57;;
81336;SDS011;70799;48.000;10.584;2023-07-02T12:25:16;17.00;;;10.68;;
81336;SDS011;70799;48.000;10.584;2023-07-02T12:27:50;17.80;;;11.45;;
81336;SDS011;70799;48.000;10.584;2023-07-02T12:30:24;18.95;;;11.23;;
81336;SDS011;70799;48.000;10.584;2023-07-02T12:32:59;16.85;;;11.40;;
81336;SDS011;70799;48.000;10.584;2023-07-02T12:35:34;19.13;;;11.60;;
81336;SDS011;70799;48.000;10.584;2023-07-02T12:38:08;19.88;;;12.45;;
81336;SDS011;70799;48.000;10.584;2023-07-02T12:40:42;18.95;;;12.20;;
81336;SDS011;70799;48.000;10.584;2023-07-02T12:43:18;22.05;;;11.57;;
81336;SDS011;70799;48.000;10.584;2023-07-02T12:45:52;20.13;;;12.75;;
81336;SDS011;70799;48.000;10.584;2023-07-02T12:48:25;17.83;;;12.35;;
81336;SDS011;70799;48.000;10.584;2023-07-02T12:50:59;20.80;;;12.15;;
81336;SDS011;70799;48.000;10.584;2023-07-02T12:53:34;20.65;;;12.63;;
81336;SDS011;70799;48.000;10.584;2023-07-02T12:56:07;20.35;;;12.00;;
81336;SDS011;70799;48.000;10.584;2023-07-02T12:58:42;19.08;;;12.02;;
81336;SDS011;70799;48.000;10.584;2023-07-02T13:01:15;18.73;;;11.70;;
81336;SDS011;70799;48.000;10.584;2023-07-02T13:03:49;19.85;;;11.20;;
81336;SDS011;70799;48.000;10.584;2023-07-02T13:06:23;21.05;;;11.85;;
81336;SDS011;70799;48.000;10.584;2023-07-02T13:08:56;21.45;;;11.85;;
81336;SDS011;70799;48.000;10.584;2023-07-02T13:11:31;19.70;;;10.65;;
81336;SDS011;70799;48.000;10.584;2023-07-02T13:14:12;18.98;;;11.75;;
81336;SDS011;70799;48.000;10.584;2023-07-02T13:19:19;16.85;;;10.15;;
81336;SDS011;70799;48.000;10.584;2023-07-02T13:21:53;17.02;;;11.23;;
81336;SDS011;70799;48.000;10.584;2023-07-02T13:24:27;23.73;;;12.13;;
81336;SDS011;70799;48.000;10.584;2023-07-02T13:27:12;18.58;;;11.57;;
81336;SDS011;70799;48.000;10.584;2023-07-02T13:29:49;18.75;;;11.05;;
81336;SDS011;70799;48.000;10.584;2023-07-02T13:32:30;20.15;;;12.02;;
81336;SDS011;70799;48.000;10.584;2023-07-02T13:35:04;18.90;;;11.25;;
81336;SDS011;70799;48.000;10.584;2023-07-02T13:37:40;18.50;;;10.93;;
81336;SDS011;70799;48.000;10.584;2023-07-02T13:40:14;19.55;;;11.27;;
81336;SDS011;70799;48.000;10.584;2023-07-02T13:42:47;17.23;;;10.80;;
81336;SDS011;70799;48.000;10.584;2023-07-02T13:45:21;16.13;;;10.75;;
81336;SDS011;70799;48.000;10.584;2023-07-02T13:47:54;17.30;;;10.70;;
81336;SDS011;70799;48.000;10.584;2023-07-02T13:50:29;19.88;;;10.05;;
81336;SDS011;70799;48.000;10.584;2023-07-02T13:53:02;16.33;;;9.65;;
81336;SDS011;70799;48.000;10.584;2023-07-02T13:55:36;16.65;;;9.75;;
81336;SDS011;70799;48.000;10.584;2023-07-02T13:58:09;18.02;;;10.73;;
81336;SDS011;70799;48.000;10.584;2023-07-02T14:00:52;17.40;;;10.73;;
81336;SDS011;70799;48.000;10.584;2023-07-02T14:03:31;16.77;;;9.55;;
81336;SDS011;70799;48.000;10.584;2023-07-02T14:06:05;15.25;;;9.43;;
81336;SDS011;70799;48.000;10.584;2023-07-02T14:08:41;17.17;;;9.65;;
81336;SDS011;70799;48.000;10.584;2023-07-02T14:11:18;14.70;;;9.93;;
81336;SDS011;70799;48.000;10.584;2023-07-02T14:13:52;14.88;;;9.30;;
81336;SDS011;70799;48.000;10.584;2023-07-02T14:16:26;12.50;;;8.52;;
81336;SDS011;70799;48.000;10.584;2023-07-02T14:18:59;15.63;;;9.25;;
81336;SDS011;70799;48.000;10.584;2023-07-02T14:21:34;13.25;;;8.70;;
81336;SDS011;70799;48.000;10.584;2023-07-02T14:24:07;15.55;;;9.05;;
81336;SDS011;70799;48.000;10.584;2023-07-02T14:26:41;14.18;;;8.30;;
81336;SDS011;70799;48.000;10.584;2023-07-02T14:29:16;13.90;;;8.65;;
81336;SDS011;70799;48.000;10.584;2023-07-02T14:31:49;14.98;;;8.77;;
81336;SDS011;70799;48.000;10.584;2023-07-02T14:34:24;15.30;;;8.05;;
81336;SDS011;70799;48.000;10.584;2023-07-02T14:36:59;13.32;;;7.88;;
81336;SDS011;70799;48.000;10.584;2023-07-02T14:39:32;12.57;;;7.47;;
81336;SDS011;70799;48.000;10.584;2023-07-02T14:42:06;14.15;;;7.88;;
81336;SDS011;70799;48.000;10.584;2023-07-02T14:44:40;15.80;;;7.50;;
81336;SDS011;70799;48.000;10.584;2023-07-02T14:47:14;12.55;;;7.35;;
81336;SDS011;70799;48.000;10.584;2023-07-02T14:49:50;12.70;;;7.28;;
81336;SDS011;70799;48.000;10.584;2023-07-02T14:55:00;12.00;;;6.90;;
81336;SDS011;70799;48.000;10.584;2023-07-02T14:57:36;11.30;;;7.15;;
81336;SDS011;70799;48.000;10.584;2023-07-02T15:00:10;10.38;;;6.32;;
81336;SDS011;70799;48.000;10.584;2023-07-02T15:02:45;11.55;;;6.88;;
81336;SDS011;70799;48.000;10.584;2023-07-02T15:05:21;11.75;;;6.75;;
81336;SDS011;70799;48.000;10.584;2023-07-02T15:07:55;12.10;;;7.32;;
81336;SDS011;70799;48.000;10.584;2023-07-02T15:10:28;12.73;;;6.82;;
81336;SDS011;70799;48.000;10.584;2023-07-02T15:13:01;10.68;;;6.47;;
81336;SDS011;70799;48.000;10.584;2023-07-02T15:15:35;10.25;;;6.25;;
81336;SDS011;70799;48.000;10.584;2023-07-02T15:18:08;11.05;;;6.57;;
81336;SDS011;70799;48.000;10.584;2023-07-02T15:20:43;9.70;;;5.95;;